Аэропорт: Основа. Харьков

ICAO: UKHH

METAR:
2019/03/26 13:00
UKHH 261300Z 29005MPS CAVOK 10/M04 Q1009 R25/0///72 NOSIG
METAR:
2019/03/26 12:12
TAF UKHH 261110Z 2612/2712 25005MPS 9999 SCT020CB BKN030 TX11/2612Z TN01/2703Z 
      TEMPO 2612/2618 29007G13MPS 2100 -SHRA BKN007 BKN015CB PROB40 
      TEMPO 2612/2618 -TSRA 
      BECMG 2618/2620 33003MPS 2100 BR BKN007 PROB40 
      TEMPO 2621/2706 0400 FG OVC002